createdAt,value
2023-01-19T00:01:28.037Z,-4.04
2023-01-19T00:03:54.791Z,-4.06
2023-01-19T00:06:21.541Z,-4.10
2023-01-19T00:08:52.978Z,-4.11
2023-01-19T00:11:19.899Z,-4.17
2023-01-19T00:13:50.608Z,-4.16
2023-01-19T00:16:18.967Z,-4.14
2023-01-19T00:18:46.701Z,-4.17
2023-01-19T00:21:17.258Z,-4.18
2023-01-19T00:23:47.441Z,-4.21
2023-01-19T00:26:16.340Z,-4.21
2023-01-19T00:28:44.992Z,-4.27
2023-01-19T00:31:12.237Z,-4.29
2023-01-19T00:33:38.869Z,-4.30
2023-01-19T00:36:05.720Z,-4.26
2023-01-19T00:38:32.397Z,-4.24
2023-01-19T00:40:59.568Z,-4.19
2023-01-19T00:43:26.180Z,-4.18
2023-01-19T00:45:53.638Z,-4.21
2023-01-19T00:48:20.404Z,-4.23
2023-01-19T00:50:49.134Z,-4.25
2023-01-19T00:53:15.808Z,-4.27
2023-01-19T00:55:42.459Z,-4.29
2023-01-19T00:58:09.717Z,-4.30
2023-01-19T01:00:39.205Z,-4.32
2023-01-19T01:03:05.874Z,-4.29
2023-01-19T01:05:32.580Z,-4.25
2023-01-19T01:07:59.322Z,-4.22
2023-01-19T01:10:28.722Z,-4.21
2023-01-19T01:13:20.397Z,-4.23
2023-01-19T01:15:42.705Z,-4.25
2023-01-19T01:18:10.031Z,-4.26
2023-01-19T01:20:37.162Z,-4.43
2023-01-19T01:23:04.388Z,-4.31
2023-01-19T01:25:31.599Z,-4.34
2023-01-19T01:27:58.268Z,-4.36
2023-01-19T01:30:30.820Z,-4.37
2023-01-19T01:32:57.448Z,-4.38
2023-01-19T01:35:24.169Z,-4.43
2023-01-19T01:37:50.827Z,-4.49
2023-01-19T01:40:19.080Z,-4.47
2023-01-19T01:42:46.068Z,-4.50
2023-01-19T01:45:38.499Z,-4.52
2023-01-19T01:48:13.993Z,-4.54
2023-01-19T01:51:12.118Z,-4.54
2023-01-19T01:53:43.511Z,-4.55
2023-01-19T01:56:17.866Z,-4.62
2023-01-19T01:58:49.811Z,-4.64
2023-01-19T02:01:35.375Z,-4.56
2023-01-19T02:04:02.409Z,-4.53
2023-01-19T02:06:29.571Z,-4.50
2023-01-19T02:09:22.647Z,-4.50
2023-01-19T02:12:10.793Z,-4.61
2023-01-19T02:14:40.639Z,-4.67
2023-01-19T02:17:07.719Z,-4.69
2023-01-19T02:19:43.473Z,-4.71
2023-01-19T02:22:20.210Z,-4.75
2023-01-19T02:24:47.179Z,-4.75
2023-01-19T02:27:27.055Z,-4.72
2023-01-19T02:29:56.928Z,-4.75
2023-01-19T02:32:23.729Z,-4.82
2023-01-19T02:34:50.374Z,-4.83
2023-01-19T02:37:21.656Z,-4.88
2023-01-19T02:40:10.974Z,-4.92
2023-01-19T02:42:45.480Z,-4.82
2023-01-19T02:45:14.525Z,-4.86
2023-01-19T02:47:52.478Z,-4.89
2023-01-19T02:50:50.530Z,-4.95
2023-01-19T02:53:29.322Z,-5.00
2023-01-19T02:56:25.066Z,-4.98
2023-01-19T02:59:03.542Z,-5.01
2023-01-19T03:01:48.157Z,-5.06
2023-01-19T03:04:25.852Z,-5.12
2023-01-19T03:07:00.891Z,-5.05
2023-01-19T03:09:53.170Z,-5.02
2023-01-19T03:12:49.848Z,-5.01
2023-01-19T03:15:27.277Z,-4.96
2023-01-19T03:17:57.122Z,-5.03
2023-01-19T03:20:25.644Z,-5.10
2023-01-19T03:23:00.452Z,-5.15
2023-01-19T03:25:30.290Z,-5.06
2023-01-19T03:27:57.638Z,-5.05
2023-01-19T03:30:36.216Z,-4.97
2023-01-19T03:33:17.811Z,-5.01
2023-01-19T03:35:52.882Z,-4.97
2023-01-19T03:38:25.525Z,-4.96
2023-01-19T03:41:00.216Z,-4.93
2023-01-19T03:43:29.299Z,-4.90
2023-01-19T03:45:57.003Z,-4.80
2023-01-19T03:48:27.287Z,-4.87
2023-01-19T03:51:03.519Z,-4.81
2023-01-19T03:53:30.109Z,-4.82
2023-01-19T03:55:57.179Z,-4.79
2023-01-19T03:58:26.940Z,-4.82
2023-01-19T04:00:53.600Z,-4.84
2023-01-19T04:03:20.297Z,-4.80
2023-01-19T04:05:46.941Z,-4.78
2023-01-19T04:08:16.453Z,-4.77
2023-01-19T04:10:43.136Z,-4.75
2023-01-19T04:13:09.725Z,-4.81
2023-01-19T04:15:43.670Z,-4.83
2023-01-19T04:18:10.318Z,-4.82
2023-01-19T04:20:37.520Z,-4.76
2023-01-19T04:23:05.958Z,-4.68
2023-01-19T04:25:33.331Z,-4.71
2023-01-19T04:28:06.784Z,-4.81
2023-01-19T04:30:33.446Z,-4.89
2023-01-19T04:33:00.546Z,-4.95
2023-01-19T04:35:27.383Z,-4.95
2023-01-19T04:37:54.008Z,-4.97
2023-01-19T04:40:20.749Z,-5.02
2023-01-19T04:42:47.514Z,-4.94
2023-01-19T04:45:14.638Z,-4.98
2023-01-19T04:47:42.833Z,-5.12
2023-01-19T04:50:11.681Z,-5.21
2023-01-19T04:52:39.635Z,-5.22
2023-01-19T04:55:07.544Z,-5.37
2023-01-19T04:57:37.343Z,-5.41
2023-01-19T05:00:07.657Z,-5.39
2023-01-19T05:02:35.034Z,-5.47
2023-01-19T05:05:02.331Z,-5.48
2023-01-19T05:07:31.630Z,-5.51
2023-01-19T05:10:00.890Z,-5.49
2023-01-19T05:12:27.735Z,-5.45
2023-01-19T05:14:54.386Z,-5.49
2023-01-19T05:17:21.049Z,-5.43
2023-01-19T05:19:48.911Z,-5.47
2023-01-19T05:22:16.205Z,-5.43
2023-01-19T05:24:43.316Z,-5.34
2023-01-19T05:27:10.108Z,-5.24
2023-01-19T05:29:39.483Z,-5.35
2023-01-19T05:32:06.409Z,-5.35
2023-01-19T05:34:37.102Z,-5.37
2023-01-19T05:37:03.765Z,-5.30
2023-01-19T05:39:32.725Z,-5.29
2023-01-19T05:42:02.460Z,-5.16
2023-01-19T05:44:29.714Z,-5.17
2023-01-19T05:46:56.574Z,-5.08
2023-01-19T05:49:23.290Z,-5.07
2023-01-19T05:51:56.844Z,-5.06
2023-01-19T05:54:23.819Z,-5.06
2023-01-19T05:56:54.140Z,-5.03
2023-01-19T05:59:25.089Z,-5.07
2023-01-19T06:01:55.269Z,-5.08
2023-01-19T06:04:25.827Z,-5.12
2023-01-19T06:06:55.747Z,-5.10
2023-01-19T06:09:22.426Z,-5.08
2023-01-19T06:11:50.010Z,-5.00
2023-01-19T06:14:18.154Z,-5.09
2023-01-19T06:16:45.263Z,-5.13
2023-01-19T06:19:15.141Z,-5.18
2023-01-19T06:21:41.913Z,-5.21
2023-01-19T06:24:15.503Z,-5.19
2023-01-19T06:26:45.526Z,-5.23
2023-01-19T06:29:16.347Z,-5.26
2023-01-19T06:31:44.236Z,-5.28
2023-01-19T06:34:11.492Z,-5.26
2023-01-19T06:36:41.221Z,-5.30
2023-01-19T06:39:13.418Z,-5.27
2023-01-19T06:41:47.279Z,-5.27
2023-01-19T06:44:17.065Z,-5.15
2023-01-19T06:46:46.624Z,-5.15
2023-01-19T06:49:13.240Z,-5.26
2023-01-19T06:51:39.883Z,-5.36
2023-01-19T06:54:06.643Z,-5.40
2023-01-19T06:56:33.314Z,-5.41
2023-01-19T06:59:00.017Z,-5.41
2023-01-19T07:01:27.098Z,-5.44
2023-01-19T07:03:59.772Z,-5.47
2023-01-19T07:06:26.503Z,-5.44
2023-01-19T07:08:54.351Z,-5.40
2023-01-19T07:11:23.613Z,-5.38
2023-01-19T07:14:05.807Z,-5.33
2023-01-19T07:16:35.176Z,-5.24
2023-01-19T07:19:04.678Z,-5.22
2023-01-19T07:21:31.332Z,-5.25
2023-01-19T07:24:01.040Z,-5.24
2023-01-19T07:26:28.087Z,-5.21
2023-01-19T07:28:55.016Z,-5.21
2023-01-19T07:31:21.813Z,-5.17
2023-01-19T07:33:48.650Z,-5.31
2023-01-19T07:36:15.556Z,-5.31
2023-01-19T07:38:42.247Z,-5.34
2023-01-19T07:41:10.244Z,-5.29
2023-01-19T07:43:36.871Z,-5.29
2023-01-19T07:46:05.774Z,-5.30
2023-01-19T07:48:32.690Z,-5.23
2023-01-19T07:51:01.199Z,-5.18
2023-01-19T07:53:27.867Z,-5.12
2023-01-19T07:55:58.342Z,-5.07
2023-01-19T07:58:25.446Z,-5.10
2023-01-19T08:00:52.810Z,-5.03
2023-01-19T08:03:19.674Z,-5.03
2023-01-19T08:05:51.346Z,-5.01
2023-01-19T08:08:18.432Z,-4.92
2023-01-19T08:10:45.308Z,-4.89
2023-01-19T08:13:12.232Z,-4.82
2023-01-19T08:15:38.865Z,-4.75
2023-01-19T08:18:06.286Z,-4.65
2023-01-19T08:20:33.024Z,-4.59
2023-01-19T08:23:00.429Z,-4.56
2023-01-19T08:25:42.397Z,-4.49
2023-01-19T08:28:10.542Z,-4.40
2023-01-19T08:30:37.650Z,-4.36
2023-01-19T08:33:04.697Z,-4.30
2023-01-19T08:35:32.390Z,-4.26
2023-01-19T08:38:01.676Z,-4.21
2023-01-19T08:40:30.251Z,-4.14
2023-01-19T08:43:04.897Z,-4.08
2023-01-19T08:45:32.898Z,-4.04
2023-01-19T08:48:06.521Z,-4.01
2023-01-19T08:50:34.300Z,-3.98
2023-01-19T08:53:02.964Z,-3.90
2023-01-19T08:55:30.406Z,-3.91
2023-01-19T08:58:00.280Z,-3.86
2023-01-19T09:00:27.575Z,-3.83
2023-01-19T09:02:57.983Z,-3.78
2023-01-19T09:05:25.063Z,-3.74
2023-01-19T09:07:51.841Z,-3.71
2023-01-19T09:10:19.583Z,-3.67
2023-01-19T09:12:46.630Z,-3.59
2023-01-19T09:15:16.252Z,-3.54
2023-01-19T09:17:45.574Z,-3.47
2023-01-19T09:20:12.363Z,-3.44
2023-01-19T09:22:42.394Z,-3.39
2023-01-19T09:25:12.553Z,-3.34
2023-01-19T09:27:39.195Z,-3.24
2023-01-19T09:30:06.960Z,-3.25
2023-01-19T09:32:33.746Z,-3.16
2023-01-19T09:35:00.429Z,-3.12
2023-01-19T09:37:27.107Z,-3.08
2023-01-19T09:39:53.924Z,-3.03
2023-01-19T09:42:46.410Z,-2.97
2023-01-19T09:45:23.094Z,-2.92
2023-01-19T09:47:50.858Z,-2.85
2023-01-19T09:50:31.927Z,-2.79
2023-01-19T09:53:13.838Z,-2.74
2023-01-19T09:55:42.680Z,-2.72
2023-01-19T09:58:19.430Z,-2.59
2023-01-19T10:00:53.385Z,-2.52
2023-01-19T10:03:21.031Z,-2.43
2023-01-19T10:06:03.650Z,-2.35
2023-01-19T10:08:39.947Z,-2.29
2023-01-19T10:11:22.966Z,-2.23
2023-01-19T10:13:51.909Z,-2.20
2023-01-19T10:16:32.256Z,-2.07
2023-01-19T10:19:23.920Z,-1.97
2023-01-19T10:21:51.643Z,-1.98
2023-01-19T10:24:30.430Z,-1.78
2023-01-19T10:27:00.627Z,-1.46
2023-01-19T10:29:40.807Z,-1.42
2023-01-19T10:32:11.321Z,-1.47
2023-01-19T10:34:38.214Z,-1.54
2023-01-19T10:37:17.258Z,-1.62
2023-01-19T10:39:55.133Z,-1.57
2023-01-19T10:42:22.801Z,-1.53
2023-01-19T10:44:52.836Z,-1.51
2023-01-19T10:47:22.934Z,-1.47
2023-01-19T10:49:49.816Z,-1.40
2023-01-19T10:52:36.123Z,-1.38
2023-01-19T10:55:04.942Z,-1.33
2023-01-19T10:57:38.516Z,-1.25
2023-01-19T11:00:08.096Z,-1.23
2023-01-19T11:02:35.055Z,-1.06
2023-01-19T11:05:23.316Z,-1.02
2023-01-19T11:07:49.988Z,-0.98
2023-01-19T11:10:16.658Z,-1.02
2023-01-19T11:13:01.471Z,-1.00
2023-01-19T11:15:53.007Z,-0.92
2023-01-19T11:18:40.109Z,-0.86
2023-01-19T11:21:17.340Z,-0.80
2023-01-19T11:23:59.075Z,-0.63
2023-01-19T11:26:42.854Z,-0.49
2023-01-19T11:29:26.437Z,-0.42
2023-01-19T11:31:54.549Z,-0.15
2023-01-19T11:34:38.761Z,0.00
2023-01-19T11:37:20.362Z,0.14
2023-01-19T11:39:53.034Z,0.34
2023-01-19T11:42:20.179Z,0.96
2023-01-19T11:45:04.524Z,0.95
2023-01-19T11:47:41.314Z,0.60
2023-01-19T11:50:26.608Z,0.66
2023-01-19T11:53:12.022Z,0.77
2023-01-19T11:56:04.545Z,0.69
2023-01-19T11:58:35.912Z,0.69
2023-01-19T12:01:11.278Z,0.52
2023-01-19T12:03:46.826Z,0.64
2023-01-19T12:06:20.569Z,0.56
2023-01-19T12:08:52.562Z,0.36
2023-01-19T12:11:29.736Z,0.64
2023-01-19T12:13:56.349Z,0.80
2023-01-19T12:16:35.486Z,1.06
2023-01-19T12:19:15.048Z,1.11
2023-01-19T12:21:42.579Z,0.91
2023-01-19T12:24:36.303Z,1.02
2023-01-19T12:27:19.899Z,0.65
2023-01-19T12:29:47.346Z,0.56
2023-01-19T12:32:13.958Z,0.73
2023-01-19T12:34:48.022Z,0.63
2023-01-19T12:37:44.233Z,0.83
2023-01-19T12:40:13.657Z,0.95
2023-01-19T12:42:46.665Z,0.86
2023-01-19T12:45:25.836Z,0.63
2023-01-19T12:47:58.841Z,0.53
2023-01-19T12:50:26.947Z,0.59
2023-01-19T12:52:58.470Z,0.50
2023-01-19T12:55:35.003Z,0.48
2023-01-19T12:58:12.943Z,0.89
2023-01-19T13:00:48.111Z,1.42
2023-01-19T13:03:17.605Z,1.77
2023-01-19T13:05:44.252Z,1.84
2023-01-19T13:08:12.583Z,2.06
2023-01-19T13:11:02.312Z,1.99
2023-01-19T13:13:28.921Z,1.59
2023-01-19T13:15:57.208Z,1.19
2023-01-19T13:18:26.619Z,0.86
2023-01-19T13:21:00.519Z,0.50
2023-01-19T13:23:52.046Z,0.33
2023-01-19T13:26:21.748Z,0.24
2023-01-19T13:29:05.399Z,0.15
2023-01-19T13:31:41.451Z,0.14
2023-01-19T13:34:18.820Z,0.14
2023-01-19T13:36:50.896Z,0.16
2023-01-19T13:39:24.745Z,0.09
2023-01-19T13:41:55.014Z,0.06
2023-01-19T13:44:39.285Z,0.02
2023-01-19T13:47:13.468Z,0.01
2023-01-19T13:49:44.833Z,-0.02
2023-01-19T13:52:26.360Z,-0.03
2023-01-19T13:54:59.790Z,-0.06
2023-01-19T13:57:31.770Z,-0.06
2023-01-19T14:00:31.846Z,-0.03
2023-01-19T14:03:02.653Z,-0.02
2023-01-19T14:05:40.335Z,-0.01
2023-01-19T14:08:12.940Z,-0.03
2023-01-19T14:11:06.146Z,-0.09
2023-01-19T14:13:44.219Z,-0.13
2023-01-19T14:16:17.043Z,-0.16
2023-01-19T14:18:44.018Z,-0.19
2023-01-19T14:21:15.067Z,-0.14
2023-01-19T14:23:41.641Z,-0.12
2023-01-19T14:26:43.141Z,-0.13
2023-01-19T14:29:21.861Z,-0.21
2023-01-19T14:32:05.144Z,-0.22
2023-01-19T14:34:54.575Z,-0.17
2023-01-19T14:37:23.061Z,-0.13
2023-01-19T14:39:59.015Z,-0.21
2023-01-19T14:42:36.007Z,-0.28
2023-01-19T14:45:08.063Z,-0.37
2023-01-19T14:47:41.715Z,-0.44
2023-01-19T14:50:17.942Z,-0.50
2023-01-19T14:52:57.609Z,-0.54
2023-01-19T14:55:48.460Z,-0.60
2023-01-19T14:58:18.712Z,-0.68
2023-01-19T15:00:46.435Z,-0.74
2023-01-19T15:03:13.433Z,-0.82
2023-01-19T15:05:44.165Z,-0.87
2023-01-19T15:08:34.558Z,-0.88
2023-01-19T15:11:14.012Z,-0.92
2023-01-19T15:13:41.785Z,-0.95
2023-01-19T15:16:10.855Z,-1.02
2023-01-19T15:18:38.585Z,-1.04
2023-01-19T15:21:06.077Z,-1.06
2023-01-19T15:23:33.457Z,-1.10
2023-01-19T15:26:02.262Z,-1.20
2023-01-19T15:28:30.398Z,-1.23
2023-01-19T15:30:59.413Z,-1.34
2023-01-19T15:33:30.570Z,-1.42
2023-01-19T15:36:00.724Z,-1.47
2023-01-19T15:38:27.844Z,-1.48
2023-01-19T15:40:54.489Z,-1.52
2023-01-19T15:43:21.558Z,-1.49
2023-01-19T15:45:54.805Z,-1.48
2023-01-19T15:48:25.304Z,-1.48
2023-01-19T15:50:51.948Z,-1.49
2023-01-19T15:53:20.862Z,-1.41
2023-01-19T15:55:52.963Z,-1.50
2023-01-19T15:58:20.808Z,-1.52
2023-01-19T16:00:57.422Z,-1.65
2023-01-19T16:03:25.881Z,-1.66
2023-01-19T16:05:52.672Z,-1.74
2023-01-19T16:08:22.197Z,-1.80
2023-01-19T16:10:48.838Z,-1.81
2023-01-19T16:13:15.450Z,-1.78
2023-01-19T16:15:42.668Z,-1.75
2023-01-19T16:18:09.601Z,-1.71
2023-01-19T16:20:36.292Z,-1.71
2023-01-19T16:23:14.735Z,-1.67
2023-01-19T16:25:42.024Z,-1.64
2023-01-19T16:28:09.301Z,-1.67
2023-01-19T16:30:36.135Z,-1.73
2023-01-19T16:33:02.828Z,-1.74
2023-01-19T16:35:29.480Z,-1.79
2023-01-19T16:37:56.169Z,-1.81
2023-01-19T16:40:25.381Z,-1.84
2023-01-19T16:42:53.726Z,-1.88
2023-01-19T16:45:20.344Z,-1.90
2023-01-19T16:47:50.643Z,-1.92
2023-01-19T16:50:32.495Z,-1.97
2023-01-19T16:52:59.378Z,-1.94
2023-01-19T16:55:26.141Z,-1.98
2023-01-19T16:58:01.672Z,-1.93
2023-01-19T17:00:28.407Z,-1.92
2023-01-19T17:02:57.590Z,-1.90
2023-01-19T17:05:24.325Z,-1.88
2023-01-19T17:07:50.964Z,-1.83
2023-01-19T17:10:25.311Z,-1.76
2023-01-19T17:12:51.913Z,-1.67
2023-01-19T17:15:18.983Z,-1.60
2023-01-19T17:17:47.804Z,-1.60
2023-01-19T17:20:14.697Z,-1.52
2023-01-19T17:22:41.466Z,-1.54
2023-01-19T17:25:08.583Z,-1.55
2023-01-19T17:27:36.719Z,-1.55
2023-01-19T17:30:07.164Z,-1.53
2023-01-19T17:32:33.883Z,-1.55
2023-01-19T17:35:00.545Z,-1.54
2023-01-19T17:37:27.202Z,-1.57
2023-01-19T17:39:56.659Z,-1.57
2023-01-19T17:42:24.435Z,-1.57
2023-01-19T17:44:51.068Z,-1.57
2023-01-19T17:47:17.887Z,-1.51
2023-01-19T17:49:47.476Z,-1.55
2023-01-19T17:52:15.884Z,-1.57
2023-01-19T17:54:43.649Z,-1.59
2023-01-19T17:57:10.844Z,-1.64
2023-01-19T17:59:43.783Z,-1.65
2023-01-19T18:02:10.926Z,-1.64
2023-01-19T18:04:38.848Z,-1.60
2023-01-19T18:07:05.858Z,-1.55
2023-01-19T18:09:32.557Z,-1.52
2023-01-19T18:11:59.320Z,-1.51
2023-01-19T18:14:26.007Z,-1.52
2023-01-19T18:16:52.622Z,-1.54
2023-01-19T18:19:22.191Z,-1.60
2023-01-19T18:21:48.879Z,-1.65
2023-01-19T18:24:15.540Z,-1.68
2023-01-19T18:26:42.754Z,-1.73
2023-01-19T18:29:09.550Z,-1.71
2023-01-19T18:31:39.306Z,-1.71
2023-01-19T18:34:05.922Z,-1.75
2023-01-19T18:36:34.333Z,-1.72
2023-01-19T18:39:01.736Z,-1.70
2023-01-19T18:41:29.956Z,-1.65
2023-01-19T18:44:02.230Z,-1.61
2023-01-19T18:46:38.528Z,-1.59
2023-01-19T18:49:05.959Z,-1.53
2023-01-19T18:51:32.660Z,-1.50
2023-01-19T18:53:59.891Z,-1.48
2023-01-19T18:56:26.770Z,-1.45
2023-01-19T18:58:53.557Z,-1.43
2023-01-19T19:01:25.893Z,-1.37
2023-01-19T19:03:53.823Z,-1.31
2023-01-19T19:06:21.458Z,-1.30
2023-01-19T19:08:54.947Z,-1.31
2023-01-19T19:11:23.970Z,-1.26
2023-01-19T19:13:54.907Z,-1.25
2023-01-19T19:16:21.724Z,-1.23
2023-01-19T19:18:50.117Z,-1.21
2023-01-19T19:21:20.695Z,-1.20
2023-01-19T19:23:54.388Z,-1.18
2023-01-19T19:26:21.165Z,-1.15
2023-01-19T19:28:48.015Z,-1.11
2023-01-19T19:31:18.245Z,-1.06
2023-01-19T19:33:45.019Z,-1.02
2023-01-19T19:36:15.036Z,-1.00
2023-01-19T19:38:43.347Z,-1.00
2023-01-19T19:41:13.527Z,-0.97
2023-01-19T19:43:40.401Z,-0.97
2023-01-19T19:46:10.063Z,-0.99
2023-01-19T19:48:39.867Z,-0.94
2023-01-19T19:51:18.081Z,-0.93
2023-01-19T19:53:46.424Z,-0.90
2023-01-19T19:56:13.582Z,-0.88
2023-01-19T19:58:44.663Z,-0.87
2023-01-19T20:01:14.198Z,-0.85
2023-01-19T20:03:41.511Z,-0.86
2023-01-19T20:06:10.646Z,-0.83
2023-01-19T20:08:37.460Z,-0.83
2023-01-19T20:11:13.283Z,-0.81
2023-01-19T20:13:42.065Z,-0.79
2023-01-19T20:16:18.336Z,-0.77
2023-01-19T20:18:51.474Z,-0.78
2023-01-19T20:21:24.348Z,-0.76
2023-01-19T20:23:53.055Z,-0.75
2023-01-19T20:26:23.056Z,-0.75
2023-01-19T20:28:49.879Z,-0.72
2023-01-19T20:31:22.436Z,-0.70
2023-01-19T20:33:50.409Z,-0.69
2023-01-19T20:36:17.400Z,-0.67
2023-01-19T20:38:44.313Z,-0.67
2023-01-19T20:41:12.836Z,-0.66
2023-01-19T20:43:39.788Z,-0.66
2023-01-19T20:46:06.875Z,-0.66
2023-01-19T20:48:33.640Z,-0.65
2023-01-19T20:51:06.284Z,-0.61
2023-01-19T20:53:33.602Z,-0.60
2023-01-19T20:56:06.229Z,-0.57
2023-01-19T20:58:33.382Z,-0.56
2023-01-19T21:01:00.436Z,-0.55
2023-01-19T21:03:30.092Z,-0.57
2023-01-19T21:05:59.516Z,-0.53
2023-01-19T21:08:26.321Z,-0.53
2023-01-19T21:10:56.709Z,-0.53
2023-01-19T21:13:23.931Z,-0.50
2023-01-19T21:15:53.710Z,-0.51
2023-01-19T21:18:20.340Z,-0.54
2023-01-19T21:20:50.029Z,-0.51
2023-01-19T21:23:19.141Z,-0.49
2023-01-19T21:25:57.005Z,-0.49
2023-01-19T21:28:24.677Z,-0.47
2023-01-19T21:30:58.240Z,-0.47
2023-01-19T21:33:24.904Z,-0.45
2023-01-19T21:35:56.999Z,-0.43
2023-01-19T21:38:26.918Z,-0.43
2023-01-19T21:40:54.554Z,-0.42
2023-01-19T21:43:21.874Z,-0.39
2023-01-19T21:45:49.168Z,-0.40
2023-01-19T21:48:17.365Z,-0.39
2023-01-19T21:50:44.588Z,-0.34
2023-01-19T21:53:11.937Z,-0.36
2023-01-19T21:55:47.293Z,-0.35
2023-01-19T21:58:14.100Z,-0.36
2023-01-19T22:00:41.224Z,-0.33
2023-01-19T22:03:07.997Z,-0.31
2023-01-19T22:05:36.959Z,-0.32
2023-01-19T22:08:04.793Z,-0.30
2023-01-19T22:10:31.431Z,-0.28
2023-01-19T22:12:58.199Z,-0.29
2023-01-19T22:15:25.182Z,-0.27
2023-01-19T22:17:51.931Z,-0.25
2023-01-19T22:20:18.692Z,-0.25
2023-01-19T22:22:45.381Z,-0.23
2023-01-19T22:25:15.236Z,-0.21
2023-01-19T22:27:42.263Z,-0.19
2023-01-19T22:30:09.378Z,-0.18
2023-01-19T22:32:36.059Z,-0.18
2023-01-19T22:35:02.729Z,-0.19
2023-01-19T22:37:29.395Z,-0.17
2023-01-19T22:39:56.047Z,-0.17
2023-01-19T22:42:22.677Z,-0.15
2023-01-19T22:44:49.357Z,-0.16
2023-01-19T22:47:16.014Z,-0.15
2023-01-19T22:49:45.254Z,-0.14
2023-01-19T22:52:11.992Z,-0.13
2023-01-19T22:54:38.680Z,-0.15
2023-01-19T22:57:09.371Z,-0.17
2023-01-19T22:59:35.956Z,-0.15
2023-01-19T23:02:02.888Z,-0.14
2023-01-19T23:04:29.557Z,-0.14
2023-01-19T23:06:56.208Z,-0.12
2023-01-19T23:09:22.852Z,-0.10
2023-01-19T23:11:50.816Z,-0.12
2023-01-19T23:14:21.127Z,-0.14
2023-01-19T23:16:48.280Z,-0.11
2023-01-19T23:19:18.163Z,-0.09
2023-01-19T23:21:45.861Z,-0.09
2023-01-19T23:24:12.616Z,-0.10
2023-01-19T23:26:39.610Z,-0.10
2023-01-19T23:29:14.939Z,-0.07
2023-01-19T23:31:47.324Z,-0.07
2023-01-19T23:34:14.962Z,-0.06
2023-01-19T23:36:48.082Z,-0.05
2023-01-19T23:39:17.449Z,-0.06
2023-01-19T23:41:44.587Z,-0.05
2023-01-19T23:44:11.308Z,-0.04
2023-01-19T23:46:39.035Z,-0.05
2023-01-19T23:49:05.720Z,-0.03
2023-01-19T23:51:33.456Z,-0.01
2023-01-19T23:54:00.893Z,0.01
2023-01-19T23:56:30.642Z,0.01
2023-01-19T23:59:04.100Z,0.02
